Marland, OK (74644)

17:10 CDT le 21 septembre 2014 (GMT -0500)
Downtown | Change Station
CLOSE
Current Station
Stations météorologiques personnelles
Location: Marland, OK
Altitude: 1040 ft
Stations météo à proximité

Alt. 1040 ft 36.56 °N, 97.15 °W | Updated 8 minutes ago

Ciel dégagé
Ciel dégagé
85.1 ° F
Paraît 83 ° F
N
3.0
Vent Variable Vent de NNE
Gusts 4.0 mph

Aujourd'hui
Haut(e) -- | Bas -- ° F
--% Risque de précip.
Hier
Haut(e) -- | Bas -- ° F
Precip. -- pouce
7:15 AM 7:26 PM
Lune descendante, 5% visible
Pression 30.10 pouce
Visibilité 10.0 Miles terrestres
Nuages Ciel dégagé
indice de chaleur 83 ° F
Point de rosée 52 ° F
Humidité 32%
Précipitations 0.00 pouce
Profondeur de la couche neigeuse Non disponible.
UV 3 sur 12
Pollen 10.30 sur 12
Qualité de l'air Non disponible.
Flu Activity Non disponible.
METAR KPNC 212153Z AUTO 04012KT 10SM CLR 29/07 A3014 RMK AO2 SLP192 T02940072 TSNO

More Conditions Fewer Conditions

Pression 30.10 pouce
Visibilité 10.0 Miles terrestres
Nuages Ciel dégagé
indice de chaleur 83 ° F
Point de rosée 52 ° F
Humidité 32%
Précipitations 0.00 pouce
Profondeur de la couche neigeuse Non disponible.
UV 3 sur 12
Pollen 10.30 sur 12
Qualité de l'air Non disponible.
Flu Activity Non disponible.
METAR KPNC 212153Z AUTO 04012KT 10SM CLR 29/07 A3014 RMK AO2 SLP192 T02940072 TSNO

More Conditions Fewer Conditions

10-Day Weather Forecast

Almanac

Astronomie

Sep. 21, 2014 Lever Coucher
Temps réel 07:15 CDT 19:26 CDT
Crépuscule civil 06:49 CDT 19:52 CDT
Crépuscule nautique 06:19 CDT 20:22 CDT
Crépuscule astronomique 05:49 CDT 20:53 CDT
Lune 04:53 CDT 18:01 CDT
Durée de lumière visible 13h 02m
Longueur du jour
12h 11m
Tomorrow will be 2m 18s shorter.
Lune descendante, 5% of the Moon is Illuminated
Aujourd'hui
Lune descendante
Sep 24
Nouveau
Oct 1
Premier quartier
Oct 8
Pleine lune
Oct 15
Dernier quartier

Extrêmes aujourd'hui

State Highs State Lows

Community

WunderPhotos

Upload Photos

1,755,269 Photos téléchargées !

WunderBlogs® & News

Nearby

Épaisseur de neige

Station Depth Altitude
Pas de nouvelles chutes de neige

Activité sismique

Ville Distance Mag. Time & Date
Medford, Oklahoma 36 Miles terrestres 3.2 02:10 CDT
2014-09-20
Luther, Oklahoma 61 Miles terrestres 2.7 16:47 CDT
2014-09-19
Guthrie, Oklahoma 53 Miles terrestres 3.6 12:23 CDT
2014-09-19
Jones, Oklahoma 68 Miles terrestres 2.8 01:13 CDT
2014-09-19
Minimum magnitude displayed is 2.5.

Températures des eaux côtières

Lieu Température
Aucun rapport de station

Stations météo à proximité